createdAt,value
2023-11-23T00:00:59.749Z,18.17
2023-11-23T00:03:28.876Z,18.33
2023-11-23T00:05:55.715Z,18.33
2023-11-23T00:08:22.855Z,18.53
2023-11-23T00:10:50.743Z,19.90
2023-11-23T00:13:17.665Z,19.53
2023-11-23T00:15:44.496Z,19.70
2023-11-23T00:18:11.337Z,19.20
2023-11-23T00:20:38.350Z,19.63
2023-11-23T00:23:07.511Z,19.17
2023-11-23T00:25:39.052Z,19.87
2023-11-23T00:28:05.924Z,19.53
2023-11-23T00:30:32.817Z,19.80
2023-11-23T00:33:02.131Z,19.83
2023-11-23T00:35:29.040Z,20.70
2023-11-23T00:37:56.007Z,21.13
2023-11-23T00:40:25.084Z,20.13
2023-11-23T00:42:51.954Z,19.57
2023-11-23T00:45:18.959Z,18.97
2023-11-23T00:47:46.041Z,20.03
2023-11-23T00:50:12.906Z,20.07
2023-11-23T00:52:39.799Z,19.90
2023-11-23T00:55:07.021Z,20.67
2023-11-23T00:57:35.718Z,19.87
2023-11-23T01:00:06.473Z,19.87
2023-11-23T01:02:38.631Z,20.63
2023-11-23T01:05:12.908Z,18.67
2023-11-23T01:07:39.771Z,19.17
2023-11-23T01:10:07.397Z,18.53
2023-11-23T01:12:36.498Z,18.40
2023-11-23T01:15:03.621Z,18.30
2023-11-23T01:17:30.445Z,18.63
2023-11-23T01:19:57.348Z,17.97
2023-11-23T01:22:24.200Z,18.30
2023-11-23T01:24:51.083Z,18.27
2023-11-23T01:27:20.410Z,18.37
2023-11-23T01:29:47.295Z,18.47
2023-11-23T01:32:19.159Z,18.50
2023-11-23T01:34:46.031Z,18.23
2023-11-23T01:37:12.926Z,18.33
2023-11-23T01:39:41.933Z,18.57
2023-11-23T01:42:08.993Z,18.03
2023-11-23T01:44:35.851Z,18.13
2023-11-23T01:47:05.812Z,18.87
2023-11-23T01:49:35.531Z,16.83
2023-11-23T01:52:05.045Z,16.87
2023-11-23T01:54:31.839Z,17.13
2023-11-23T01:56:58.766Z,16.87
2023-11-23T01:59:27.997Z,17.33
2023-11-23T02:01:58.572Z,17.80
2023-11-23T02:04:25.442Z,17.70
2023-11-23T02:06:52.241Z,16.83
2023-11-23T02:09:19.210Z,17.87
2023-11-23T02:11:48.475Z,16.97
2023-11-23T02:14:15.352Z,17.40
2023-11-23T02:16:42.209Z,17.83
2023-11-23T02:19:09.022Z,17.43
2023-11-23T02:21:35.887Z,18.30
2023-11-23T02:24:09.986Z,18.00
2023-11-23T02:26:39.501Z,17.60
2023-11-23T02:29:06.391Z,18.47
2023-11-23T02:31:36.004Z,18.67
2023-11-23T02:34:02.947Z,17.20
2023-11-23T02:36:29.805Z,19.23
2023-11-23T02:38:56.645Z,19.57
2023-11-23T02:41:26.045Z,18.33
2023-11-23T02:43:52.833Z,19.53
2023-11-23T02:46:19.727Z,19.30
2023-11-23T02:48:46.569Z,20.50
2023-11-23T02:51:15.742Z,18.60
2023-11-23T02:53:45.635Z,19.93
2023-11-23T02:56:16.644Z,19.37
2023-11-23T02:58:43.490Z,21.03
2023-11-23T03:01:10.364Z,22.03
2023-11-23T03:03:37.329Z,21.90
2023-11-23T03:06:04.444Z,20.97
2023-11-23T03:08:33.819Z,20.63
2023-11-23T03:11:03.015Z,21.37
2023-11-23T03:13:29.899Z,20.80
2023-11-23T03:15:56.939Z,21.70
2023-11-23T03:18:26.119Z,22.67
2023-11-23T03:20:53.068Z,21.07
2023-11-23T03:23:21.527Z,22.03
2023-11-23T03:25:50.511Z,23.57
2023-11-23T03:28:17.392Z,22.40
2023-11-23T03:30:44.241Z,23.07
2023-11-23T03:33:11.232Z,24.60
2023-11-23T03:35:39.598Z,22.67
2023-11-23T03:38:06.479Z,24.33
2023-11-23T03:40:33.330Z,23.43
2023-11-23T03:43:00.276Z,24.13
2023-11-23T03:45:27.165Z,24.33
2023-11-23T03:47:57.695Z,24.43
2023-11-23T03:50:26.791Z,24.17
2023-11-23T03:52:53.598Z,24.43
2023-11-23T03:55:23.757Z,24.90
2023-11-23T03:57:50.822Z,24.73
2023-11-23T04:00:17.861Z,24.70
2023-11-23T04:02:47.558Z,25.47
2023-11-23T04:05:22.679Z,24.97
2023-11-23T04:07:49.615Z,25.00
2023-11-23T04:10:19.236Z,23.23
2023-11-23T04:12:47.908Z,25.30
2023-11-23T04:15:16.538Z,24.83
2023-11-23T04:17:43.592Z,24.80
2023-11-23T04:20:13.677Z,22.87
2023-11-23T04:22:40.499Z,23.77
2023-11-23T04:25:07.658Z,23.33
2023-11-23T04:27:34.899Z,23.87
2023-11-23T04:30:01.878Z,23.27
2023-11-23T04:32:28.728Z,24.40
2023-11-23T04:34:57.984Z,22.90
2023-11-23T04:37:27.284Z,23.87
2023-11-23T04:39:56.543Z,24.73
2023-11-23T04:42:25.581Z,23.47
2023-11-23T04:44:52.387Z,22.77
2023-11-23T04:47:19.460Z,23.80
2023-11-23T04:49:46.342Z,23.00
2023-11-23T04:52:13.177Z,22.40
2023-11-23T04:54:40.007Z,22.80
2023-11-23T04:57:09.517Z,23.30
2023-11-23T04:59:36.432Z,23.03
2023-11-23T05:02:03.278Z,22.57
2023-11-23T05:04:30.266Z,22.93
2023-11-23T05:06:59.477Z,23.97
2023-11-23T05:09:26.814Z,22.53
2023-11-23T05:11:53.670Z,22.40
2023-11-23T05:14:20.957Z,20.23
2023-11-23T05:16:47.789Z,22.13
2023-11-23T05:19:21.569Z,21.17
2023-11-23T05:21:56.989Z,21.13
2023-11-23T05:24:25.802Z,21.57
2023-11-23T05:26:56.323Z,21.87
2023-11-23T05:29:26.518Z,21.23
2023-11-23T05:31:53.832Z,21.70
2023-11-23T05:34:23.066Z,21.33
2023-11-23T05:36:49.930Z,22.73
2023-11-23T05:39:16.883Z,22.30
2023-11-23T05:41:44.181Z,20.47
2023-11-23T05:44:11.525Z,21.67
2023-11-23T05:46:38.430Z,20.73
2023-11-23T05:49:05.334Z,22.03
2023-11-23T05:51:32.351Z,22.13
2023-11-23T05:53:59.527Z,22.30
2023-11-23T05:56:27.717Z,21.03
2023-11-23T05:58:57.075Z,22.43
2023-11-23T06:01:24.088Z,21.73
2023-11-23T06:03:51.410Z,22.43
2023-11-23T06:06:23.262Z,22.47
2023-11-23T06:08:52.725Z,22.17
2023-11-23T06:11:20.041Z,21.47
2023-11-23T06:13:49.798Z,21.80
2023-11-23T06:16:16.806Z,20.93
2023-11-23T06:18:45.998Z,21.77
2023-11-23T06:21:13.039Z,22.37
2023-11-23T06:23:39.945Z,22.60
2023-11-23T06:26:08.323Z,21.40
2023-11-23T06:28:37.342Z,22.00
2023-11-23T06:31:04.579Z,22.13
2023-11-23T06:33:31.452Z,22.87
2023-11-23T06:36:01.501Z,21.67
2023-11-23T06:38:29.705Z,21.90
2023-11-23T06:40:58.252Z,22.03
2023-11-23T06:43:25.208Z,20.63
2023-11-23T06:45:54.704Z,20.83
2023-11-23T06:48:24.053Z,20.17
2023-11-23T06:50:50.922Z,19.03
2023-11-23T06:53:20.047Z,19.70
2023-11-23T06:55:46.943Z,18.57
2023-11-23T06:58:16.438Z,19.93
2023-11-23T07:00:43.510Z,20.50
2023-11-23T07:03:11.754Z,20.40
2023-11-23T07:05:38.834Z,19.97
2023-11-23T07:08:06.368Z,20.70
2023-11-23T07:10:35.421Z,20.27
2023-11-23T07:13:03.383Z,20.50
2023-11-23T07:15:31.136Z,20.77
2023-11-23T07:18:00.306Z,19.93
2023-11-23T07:20:27.816Z,20.20
2023-11-23T07:22:56.907Z,19.87
2023-11-23T07:25:24.439Z,21.63
2023-11-23T07:27:51.558Z,20.70
2023-11-23T07:30:18.424Z,20.37
2023-11-23T07:32:45.347Z,20.80
2023-11-23T07:35:14.454Z,19.90
2023-11-23T07:37:45.941Z,20.37
2023-11-23T07:40:18.705Z,20.23
2023-11-23T07:42:45.657Z,20.03
2023-11-23T07:45:12.767Z,18.37
2023-11-23T07:47:43.772Z,19.60
2023-11-23T07:50:17.092Z,19.47
2023-11-23T07:52:45.101Z,18.80
2023-11-23T07:55:12.126Z,19.70
2023-11-23T07:57:38.973Z,18.30
2023-11-23T08:00:08.947Z,19.43
2023-11-23T08:02:36.017Z,18.33
2023-11-23T08:05:02.946Z,19.37
2023-11-23T08:07:32.093Z,19.37
2023-11-23T08:09:59.739Z,19.37
2023-11-23T08:12:29.224Z,19.50
2023-11-23T08:14:56.108Z,19.37
2023-11-23T08:17:23.614Z,16.37
2023-11-23T08:19:52.145Z,17.53
2023-11-23T08:22:23.835Z,16.67
2023-11-23T08:24:50.854Z,16.87
2023-11-23T08:27:35.808Z,16.47
2023-11-23T08:30:05.170Z,17.10
2023-11-23T08:32:32.201Z,16.43
2023-11-23T08:35:05.816Z,16.07
2023-11-23T08:37:32.647Z,16.60
2023-11-23T08:40:05.436Z,16.60
2023-11-23T08:42:42.172Z,16.70
2023-11-23T08:45:09.767Z,16.60
2023-11-23T08:47:36.578Z,14.83
2023-11-23T08:50:03.813Z,15.30
2023-11-23T08:52:30.689Z,14.67
2023-11-23T08:54:57.830Z,16.03
2023-11-23T08:57:24.758Z,15.33
2023-11-23T08:59:54.466Z,16.00
2023-11-23T09:02:21.830Z,16.57
2023-11-23T09:04:50.246Z,15.87
2023-11-23T09:07:17.761Z,14.87
2023-11-23T09:09:50.966Z,16.60
2023-11-23T09:12:34.467Z,16.10
2023-11-23T09:15:08.728Z,16.23
2023-11-23T09:17:37.968Z,15.83
2023-11-23T09:20:10.097Z,17.17
2023-11-23T09:22:40.446Z,17.57
2023-11-23T09:25:10.173Z,17.70
2023-11-23T09:27:38.225Z,17.97
2023-11-23T09:30:08.052Z,18.00
2023-11-23T09:32:43.148Z,18.37
2023-11-23T09:35:11.620Z,18.27
2023-11-23T09:37:38.829Z,18.23
2023-11-23T09:40:12.592Z,18.90
2023-11-23T09:42:52.237Z,18.67
2023-11-23T09:45:26.449Z,19.07
2023-11-23T09:47:56.717Z,19.80
2023-11-23T09:50:23.772Z,19.93
2023-11-23T09:52:50.675Z,20.53
2023-11-23T09:55:19.900Z,19.47
2023-11-23T09:57:49.761Z,19.13
2023-11-23T10:00:17.065Z,20.40
2023-11-23T10:02:44.593Z,20.93
2023-11-23T10:05:20.148Z,21.20
2023-11-23T10:07:47.008Z,21.73
2023-11-23T10:10:14.231Z,21.67
2023-11-23T10:12:50.467Z,21.57
2023-11-23T10:15:17.708Z,21.07
2023-11-23T10:17:46.081Z,21.93
2023-11-23T10:20:18.521Z,22.57
2023-11-23T10:22:46.298Z,22.50
2023-11-23T10:25:39.564Z,22.40
2023-11-23T10:28:18.214Z,22.13
2023-11-23T10:30:46.511Z,20.77
2023-11-23T10:33:39.073Z,22.90
2023-11-23T10:36:07.495Z,21.63
2023-11-23T10:38:45.134Z,21.17
2023-11-23T10:41:13.187Z,22.30
2023-11-23T10:43:47.651Z,21.40
2023-11-23T10:46:20.776Z,21.57
2023-11-23T10:48:50.345Z,21.67
2023-11-23T10:51:24.647Z,21.33
2023-11-23T10:53:54.752Z,20.17
2023-11-23T10:56:34.795Z,20.77
2023-11-23T10:59:09.798Z,20.90
2023-11-23T11:01:38.970Z,21.37
2023-11-23T11:04:18.679Z,20.53
2023-11-23T11:06:46.451Z,20.77
2023-11-23T11:09:15.685Z,20.63
2023-11-23T11:11:46.601Z,19.80
2023-11-23T11:14:17.748Z,19.13
2023-11-23T11:16:44.780Z,19.73
2023-11-23T11:19:15.126Z,19.10
2023-11-23T11:21:48.681Z,18.97
2023-11-23T11:24:25.362Z,18.70
2023-11-23T11:27:00.335Z,18.63
2023-11-23T11:29:34.114Z,19.03
2023-11-23T11:32:09.964Z,17.77
2023-11-23T11:34:39.782Z,18.17
2023-11-23T11:37:08.304Z,17.43
2023-11-23T11:39:47.345Z,18.20
2023-11-23T11:42:17.176Z,18.90
2023-11-23T11:44:44.799Z,19.30
2023-11-23T11:47:12.059Z,19.77
2023-11-23T11:49:38.959Z,19.60
2023-11-23T11:52:15.333Z,18.53
2023-11-23T11:54:44.292Z,18.00
2023-11-23T11:57:11.190Z,18.93
2023-11-23T11:59:38.973Z,18.70
2023-11-23T12:02:08.523Z,19.33
2023-11-23T12:04:36.758Z,18.40
2023-11-23T12:07:14.146Z,18.40
2023-11-23T12:09:47.864Z,18.73
2023-11-23T12:12:14.875Z,18.73
2023-11-23T12:14:49.224Z,18.87
2023-11-23T12:17:26.928Z,18.27
2023-11-23T12:19:54.704Z,18.27
2023-11-23T12:22:35.557Z,18.90
2023-11-23T12:25:07.127Z,17.87
2023-11-23T12:27:35.438Z,17.43
2023-11-23T12:30:06.003Z,18.03
2023-11-23T12:32:35.366Z,18.73
2023-11-23T12:35:02.160Z,18.37
2023-11-23T12:37:37.511Z,18.07
2023-11-23T12:40:10.511Z,17.30
2023-11-23T12:42:37.632Z,16.80
2023-11-23T12:45:09.751Z,17.20
2023-11-23T12:47:54.682Z,16.60
2023-11-23T12:50:23.098Z,16.63
2023-11-23T12:52:52.317Z,16.87
2023-11-23T12:55:19.443Z,16.67
2023-11-23T12:57:46.391Z,16.23
2023-11-23T13:00:23.062Z,17.00
2023-11-23T13:02:52.563Z,16.50
2023-11-23T13:05:19.657Z,16.77
2023-11-23T13:07:46.517Z,16.43
2023-11-23T13:10:17.238Z,15.90
2023-11-23T13:12:44.237Z,16.30
2023-11-23T13:15:13.993Z,15.43
2023-11-23T13:17:41.695Z,15.30
2023-11-23T13:20:16.185Z,14.63
2023-11-23T13:22:43.263Z,14.57
2023-11-23T13:25:13.140Z,14.13
2023-11-23T13:27:52.695Z,14.63
2023-11-23T13:30:19.588Z,13.37
2023-11-23T13:32:51.384Z,13.07
2023-11-23T13:35:18.456Z,12.47
2023-11-23T13:37:46.485Z,12.90
2023-11-23T13:40:14.497Z,12.33
2023-11-23T13:42:44.177Z,12.67
2023-11-23T13:45:14.864Z,11.77
2023-11-23T13:47:45.689Z,12.67
2023-11-23T13:50:15.044Z,12.20
2023-11-23T13:52:42.184Z,10.77
2023-11-23T13:55:18.691Z,11.67
2023-11-23T13:57:48.385Z,11.53
2023-11-23T14:00:23.915Z,11.40
2023-11-23T14:02:53.758Z,11.23
2023-11-23T14:05:20.959Z,10.43
2023-11-23T14:07:54.921Z,10.47
2023-11-23T14:10:22.821Z,10.47
2023-11-23T14:12:52.365Z,10.03
2023-11-23T14:15:20.773Z,9.83
2023-11-23T14:17:50.907Z,9.63
2023-11-23T14:20:25.000Z,10.00
2023-11-23T14:22:54.547Z,9.43
2023-11-23T14:25:22.231Z,8.77
2023-11-23T14:27:49.624Z,9.20
2023-11-23T14:30:20.105Z,9.23
2023-11-23T14:32:52.230Z,8.87
2023-11-23T14:35:19.183Z,9.10
2023-11-23T14:37:46.097Z,8.50
2023-11-23T14:40:16.517Z,8.10
2023-11-23T14:42:52.773Z,8.57
2023-11-23T14:45:24.879Z,8.23
2023-11-23T14:47:55.736Z,8.17
2023-11-23T14:50:22.745Z,8.43
2023-11-23T14:52:49.600Z,8.13
2023-11-23T14:55:21.322Z,7.87
2023-11-23T14:57:48.178Z,7.97
2023-11-23T15:00:16.216Z,7.30
2023-11-23T15:02:43.173Z,7.93
2023-11-23T15:05:13.845Z,7.87
2023-11-23T15:07:41.223Z,7.67
2023-11-23T15:10:15.370Z,7.67
2023-11-23T15:12:53.655Z,7.60
2023-11-23T15:15:27.693Z,7.57
2023-11-23T15:17:57.218Z,7.63
2023-11-23T15:20:24.126Z,7.70
2023-11-23T15:22:56.243Z,7.13
2023-11-23T15:25:23.329Z,7.33
2023-11-23T15:27:52.181Z,7.20
2023-11-23T15:30:22.826Z,6.20
2023-11-23T15:32:59.344Z,6.33
2023-11-23T15:35:28.391Z,6.57
2023-11-23T15:37:57.773Z,6.37
2023-11-23T15:40:25.290Z,6.17
2023-11-23T15:42:54.983Z,5.70
2023-11-23T15:45:33.034Z,6.00
2023-11-23T15:48:07.596Z,6.33
2023-11-23T15:50:39.650Z,6.57
2023-11-23T15:53:06.673Z,6.57
2023-11-23T15:55:42.501Z,6.37
2023-11-23T15:58:11.652Z,6.17
2023-11-23T16:00:41.576Z,6.03
2023-11-23T16:03:16.959Z,6.27
2023-11-23T16:05:44.228Z,6.03
2023-11-23T16:08:16.487Z,6.73
2023-11-23T16:10:43.554Z,6.30
2023-11-23T16:13:11.137Z,6.40
2023-11-23T16:15:37.965Z,6.27
2023-11-23T16:18:05.114Z,6.63
2023-11-23T16:20:32.661Z,6.73
2023-11-23T16:22:59.547Z,7.10
2023-11-23T16:25:33.812Z,7.47
2023-11-23T16:28:04.768Z,6.50
2023-11-23T16:30:31.921Z,7.33
2023-11-23T16:33:03.032Z,6.97
2023-11-23T16:35:31.244Z,6.67
2023-11-23T16:37:58.305Z,7.17
2023-11-23T16:40:27.578Z,6.30
2023-11-23T16:42:57.013Z,6.10
2023-11-23T16:45:40.716Z,6.20
2023-11-23T16:48:14.682Z,6.37
2023-11-23T16:50:47.657Z,5.93
2023-11-23T16:53:30.485Z,5.40
2023-11-23T16:56:12.478Z,5.70
2023-11-23T16:58:46.592Z,5.90
2023-11-23T17:01:13.722Z,5.20
2023-11-23T17:03:46.026Z,5.40
2023-11-23T17:06:14.987Z,5.90
2023-11-23T17:08:42.042Z,5.07
2023-11-23T17:11:14.481Z,5.50
2023-11-23T17:13:51.802Z,5.03
2023-11-23T17:16:18.711Z,4.97
2023-11-23T17:18:45.880Z,4.40
2023-11-23T17:21:33.244Z,5.03
2023-11-23T17:24:03.534Z,4.37
2023-11-23T17:26:31.696Z,4.50
2023-11-23T17:28:59.046Z,4.53
2023-11-23T17:31:26.618Z,4.23
2023-11-23T17:34:09.523Z,4.90
2023-11-23T17:36:36.730Z,4.80
2023-11-23T17:39:04.176Z,4.40
2023-11-23T17:41:31.127Z,4.30
2023-11-23T17:43:57.971Z,4.50
2023-11-23T17:46:27.856Z,3.97
2023-11-23T17:48:57.353Z,4.70
2023-11-23T17:51:25.303Z,4.73
2023-11-23T17:53:55.675Z,4.80
2023-11-23T17:56:22.877Z,4.63
2023-11-23T17:58:49.707Z,4.60
2023-11-23T18:01:18.225Z,4.97
2023-11-23T18:03:45.325Z,5.07
2023-11-23T18:06:14.655Z,5.60
2023-11-23T18:08:44.112Z,5.23
2023-11-23T18:11:13.448Z,5.60
2023-11-23T18:13:42.399Z,5.50
2023-11-23T18:16:14.783Z,6.10
2023-11-23T18:18:43.917Z,5.63
2023-11-23T18:21:11.229Z,5.30
2023-11-23T18:23:40.241Z,6.03
2023-11-23T18:26:07.300Z,5.77
2023-11-23T18:28:39.855Z,5.97
2023-11-23T18:31:09.337Z,5.63
2023-11-23T18:33:37.606Z,6.00
2023-11-23T18:36:04.906Z,5.50
2023-11-23T18:38:37.160Z,6.20
2023-11-23T18:41:05.304Z,5.73
2023-11-23T18:43:32.595Z,6.57
2023-11-23T18:45:59.510Z,7.10
2023-11-23T18:48:27.932Z,6.73
2023-11-23T18:50:55.307Z,6.97
2023-11-23T18:53:22.163Z,7.70
2023-11-23T18:55:48.971Z,7.33
2023-11-23T18:58:15.947Z,8.13
2023-11-23T19:00:46.456Z,8.17
2023-11-23T19:03:13.657Z,8.77
2023-11-23T19:05:45.403Z,8.80
2023-11-23T19:08:12.255Z,9.10
2023-11-23T19:10:39.905Z,9.37
2023-11-23T19:13:09.516Z,9.67
2023-11-23T19:15:36.536Z,9.23
2023-11-23T19:18:04.525Z,9.77
2023-11-23T19:20:35.425Z,9.70
2023-11-23T19:23:08.383Z,10.23
2023-11-23T19:25:35.744Z,10.33
2023-11-23T19:28:06.152Z,10.73
2023-11-23T19:30:33.466Z,9.93
2023-11-23T19:33:02.898Z,10.77
2023-11-23T19:35:30.728Z,11.17
2023-11-23T19:37:59.888Z,10.77
2023-11-23T19:40:27.062Z,11.30
2023-11-23T19:42:58.920Z,11.70
2023-11-23T19:45:28.725Z,11.70
2023-11-23T19:47:56.193Z,12.17
2023-11-23T19:50:25.701Z,12.37
2023-11-23T19:52:53.678Z,13.40
2023-11-23T19:55:20.608Z,12.60
2023-11-23T19:57:49.825Z,13.10
2023-11-23T20:00:19.820Z,13.37
2023-11-23T20:02:54.519Z,13.20
2023-11-23T20:05:21.342Z,13.57
2023-11-23T20:07:49.343Z,12.83
2023-11-23T20:10:16.236Z,13.17
2023-11-23T20:12:43.093Z,12.97
2023-11-23T20:15:11.056Z,12.47
2023-11-23T20:17:38.420Z,14.40
2023-11-23T20:20:11.047Z,14.60
2023-11-23T20:22:37.921Z,13.77
2023-11-23T20:25:05.217Z,14.00
2023-11-23T20:27:32.227Z,14.00
2023-11-23T20:29:59.307Z,13.40
2023-11-23T20:32:26.360Z,13.50
2023-11-23T20:34:53.462Z,13.87
2023-11-23T20:37:20.378Z,8.80
2023-11-23T20:39:49.565Z,3.50
2023-11-23T20:42:16.507Z,2.60
2023-11-23T20:44:44.937Z,2.13
2023-11-23T20:47:15.352Z,1.70
2023-11-23T20:49:42.298Z,2.07
2023-11-23T20:52:09.495Z,2.30
2023-11-23T20:54:36.357Z,2.10
2023-11-23T20:57:03.536Z,1.90
2023-11-23T20:59:30.749Z,2.13
2023-11-23T21:01:58.169Z,2.20
2023-11-23T21:04:31.072Z,1.90
2023-11-23T21:07:02.310Z,1.57
2023-11-23T21:09:30.458Z,1.47
2023-11-23T21:12:04.139Z,1.93
2023-11-23T21:14:33.468Z,1.60
2023-11-23T21:17:01.686Z,1.50
2023-11-23T21:19:29.152Z,1.60
2023-11-23T21:21:56.097Z,1.50
2023-11-23T21:24:25.029Z,1.30
2023-11-23T21:26:54.665Z,1.60
2023-11-23T21:29:22.117Z,1.33
2023-11-23T21:31:51.744Z,1.27
2023-11-23T21:34:19.001Z,1.60
2023-11-23T21:36:46.378Z,1.10
2023-11-23T21:39:13.200Z,1.30
2023-11-23T21:41:42.552Z,1.50
2023-11-23T21:44:09.467Z,1.30
2023-11-23T21:46:36.540Z,1.20
2023-11-23T21:49:06.667Z,1.37
2023-11-23T21:51:36.308Z,1.13
2023-11-23T21:54:03.896Z,1.40
2023-11-23T21:56:30.877Z,1.37
2023-11-23T21:59:00.117Z,1.30
2023-11-23T22:01:27.192Z,1.33
2023-11-23T22:03:54.159Z,1.43
2023-11-23T22:06:21.208Z,1.33
2023-11-23T22:08:48.087Z,1.33
2023-11-23T22:11:15.662Z,1.47
2023-11-23T22:13:42.697Z,1.50
2023-11-23T22:16:09.528Z,1.50
2023-11-23T22:18:36.698Z,2.00
2023-11-23T22:21:06.597Z,1.80
2023-11-23T22:23:37.009Z,1.80
2023-11-23T22:26:15.376Z,1.47
2023-11-23T22:28:42.515Z,1.70
2023-11-23T22:31:34.634Z,1.80
2023-11-23T22:34:01.725Z,1.40
2023-11-23T22:36:31.215Z,1.77
2023-11-23T22:39:01.332Z,1.63
2023-11-23T22:41:36.994Z,1.30
2023-11-23T22:44:09.100Z,1.30
2023-11-23T22:46:39.920Z,1.67
2023-11-23T22:49:09.680Z,1.40
2023-11-23T22:51:36.733Z,1.20
2023-11-23T22:54:03.741Z,1.33
2023-11-23T22:56:33.974Z,1.30
2023-11-23T22:59:00.881Z,1.37
2023-11-23T23:01:28.973Z,1.40
2023-11-23T23:03:56.521Z,1.50
2023-11-23T23:06:23.404Z,1.70
2023-11-23T23:08:50.684Z,1.40
2023-11-23T23:11:19.632Z,1.90
2023-11-23T23:13:46.511Z,1.37
2023-11-23T23:16:13.607Z,1.23
2023-11-23T23:18:40.528Z,1.70
2023-11-23T23:21:07.431Z,1.50
2023-11-23T23:23:36.818Z,1.50
2023-11-23T23:26:03.681Z,1.60
2023-11-23T23:28:32.599Z,1.47
2023-11-23T23:30:59.799Z,1.33
2023-11-23T23:33:26.863Z,1.20
2023-11-23T23:35:56.076Z,1.47
2023-11-23T23:38:23.382Z,1.70
2023-11-23T23:40:51.523Z,1.40
2023-11-23T23:43:18.682Z,1.40
2023-11-23T23:45:45.934Z,1.27
2023-11-23T23:48:12.822Z,1.53
2023-11-23T23:50:41.583Z,1.60
2023-11-23T23:53:10.864Z,1.60
2023-11-23T23:55:37.688Z,1.40
2023-11-23T23:58:05.679Z,1.90
